Fremont Municipal Airport


Codes: KFET/FET
Name: Fremont Municipal Airport
City: Fremont
Country: United States
Elevation: 1204 ft.
Website:
Wikipedia:

Photos at Fremont Municipal Airport


   Photos courtesy of SpottingLog. You can add your own sightings and photos by signing up for a free trial today.



No photos found.

Weather at Fremont Municipal Airport


Time (UTC)DescriptionTempratureWindCloud coverageVisibilityPressureHumidity
21-Jun-2024 15:00Scattered Clouds24°C13 mph, S27%10000m1019hPa81%
21-Jun-2024 18:00Few Clouds28°C13 mph, SW14%10000m1017hPa68%
21-Jun-2024 21:00Few Clouds32°C11 mph, S11%10000m1013hPa58%
22-Jun-2024 00:00Scattered Clouds29°C13 mph, S25%10000m1011hPa68%
22-Jun-2024 03:00Light Rain25°C18 mph, S42%10000m1010hPa81%
22-Jun-2024 06:00Scattered Clouds25°C13 mph, S33%10000m1010hPa77%
22-Jun-2024 09:00Moderate Rain22°C9 mph, SW90%3284m1010hPa94%
22-Jun-2024 12:00Light Rain22°C9 mph, S76%10000m1008hPa93%
22-Jun-2024 15:00Scattered Clouds26°C13 mph, SW36%10000m1007hPa78%
22-Jun-2024 18:00Broken Clouds28°C9 mph, W69%10000m1007hPa71%
22-Jun-2024 21:00Light Rain27°C9 mph, NW79%10000m1008hPa82%
23-Jun-2024 00:00Light Rain26°C11 mph, NW75%10000m1008hPa79%
23-Jun-2024 03:00Few Clouds22°C7 mph, NW23%10000m1010hPa92%
23-Jun-2024 06:00Few Clouds21°C7 mph, NW12%10000m1012hPa96%
23-Jun-2024 09:00Clear Sky19°C7 mph, NW0%10000m1011hPa95%
23-Jun-2024 12:00Clear Sky19°C2 mph, NE0%10000m1012hPa93%
23-Jun-2024 15:00Clear Sky24°C4 mph, S0%10000m1012hPa73%
23-Jun-2024 18:00Clear Sky28°C7 mph, S0%10000m1011hPa59%
23-Jun-2024 21:00Clear Sky31°C9 mph, SW0%10000m1009hPa51%
24-Jun-2024 00:00Clear Sky31°C7 mph, S0%10000m1007hPa64%
24-Jun-2024 03:00Clear Sky25°C11 mph, S0%10000m1007hPa75%
24-Jun-2024 06:00Clear Sky23°C9 mph, S0%10000m1007hPa84%
24-Jun-2024 09:00Clear Sky22°C9 mph, S0%10000m1006hPa90%
24-Jun-2024 12:00Clear Sky22°C7 mph, S1%10000m1006hPa90%
24-Jun-2024 15:00Clear Sky29°C11 mph, S3%10000m1005hPa70%
24-Jun-2024 18:00Clear Sky34°C13 mph, S3%10000m1003hPa54%
24-Jun-2024 21:00Few Clouds36°C13 mph, SW21%10000m1001hPa52%
25-Jun-2024 00:00Scattered Clouds34°C7 mph, S50%10000m1000hPa63%
25-Jun-2024 03:00Clear Sky28°C13 mph, S4%10000m1001hPa68%
25-Jun-2024 06:00Few Clouds28°C16 mph, S17%10000m1001hPa62%
25-Jun-2024 09:00Overcast Clouds27°C11 mph, SW100%10000m1001hPa56%
25-Jun-2024 12:00Overcast Clouds24°C7 mph, SW100%10000m1002hPa76%
25-Jun-2024 15:00Overcast Clouds28°C9 mph, W100%10000m1002hPa67%
25-Jun-2024 18:00Overcast Clouds31°C11 mph, N89%10000m1003hPa67%
25-Jun-2024 21:00Scattered Clouds30°C16 mph, N44%10000m1005hPa72%
26-Jun-2024 00:00Scattered Clouds28°C16 mph, N46%10000m1005hPa72%
26-Jun-2024 03:00Clear Sky22°C7 mph, N0%10000m1009hPa78%
26-Jun-2024 06:00Clear Sky20°C4 mph, N0%10000m1010hPa79%
26-Jun-2024 09:00Clear Sky18°C7 mph, N0%10000m1011hPa77%
26-Jun-2024 12:00Clear Sky18°C7 mph, N0%10000m1012hPa80%